createdAt,value
2023-04-02T00:02:26.361Z,2.58
2023-04-02T00:05:16.318Z,3.40
2023-04-02T00:07:49.006Z,2.50
2023-04-02T00:10:38.082Z,2.60
2023-04-02T00:13:19.964Z,2.97
2023-04-02T00:18:19.699Z,3.90
2023-04-02T00:20:53.708Z,4.63
2023-04-02T00:23:22.801Z,6.63
2023-04-02T00:25:50.252Z,7.57
2023-04-02T00:28:23.526Z,7.95
2023-04-02T00:30:57.414Z,8.35
2023-04-02T00:33:28.399Z,7.30
2023-04-02T00:35:56.374Z,6.70
2023-04-02T00:38:31.397Z,8.80
2023-04-02T00:41:02.374Z,8.80
2023-04-02T00:43:33.078Z,13.33
2023-04-02T00:46:04.210Z,7.95
2023-04-02T00:48:31.671Z,4.88
2023-04-02T00:51:14.240Z,4.40
2023-04-02T00:53:45.285Z,4.13
2023-04-02T00:56:46.429Z,4.13
2023-04-02T00:59:24.873Z,5.57
2023-04-02T01:02:01.688Z,6.10
2023-04-02T01:04:35.112Z,5.47
2023-04-02T01:07:07.411Z,5.00
2023-04-02T01:09:47.346Z,4.18
2023-04-02T01:12:39.660Z,3.85
2023-04-02T01:15:11.115Z,5.35
2023-04-02T01:17:48.876Z,3.83
2023-04-02T01:20:34.998Z,3.60
2023-04-02T01:23:27.190Z,3.92
2023-04-02T01:29:00.990Z,7.43
2023-04-02T01:31:30.629Z,7.15
2023-04-02T01:33:58.453Z,4.97
2023-04-02T01:36:40.424Z,3.38
2023-04-02T01:39:17.779Z,3.55
2023-04-02T01:41:56.574Z,3.45
2023-04-02T01:44:53.506Z,3.70
2023-04-02T01:47:27.280Z,3.70
2023-04-02T01:50:33.602Z,4.15
2023-04-02T01:53:10.522Z,4.18
2023-04-02T01:55:54.257Z,4.65
2023-04-02T01:58:27.586Z,5.03
2023-04-02T02:01:09.454Z,5.63
2023-04-02T02:03:41.158Z,6.60
2023-04-02T02:06:12.907Z,7.97
2023-04-02T02:08:48.326Z,10.80
2023-04-02T02:11:19.624Z,13.48
2023-04-02T02:13:57.445Z,11.93
2023-04-02T02:16:28.023Z,11.35
2023-04-02T02:19:00.715Z,12.57
2023-04-02T02:21:43.758Z,15.90
2023-04-02T02:24:22.108Z,16.30
2023-04-02T02:26:58.302Z,14.82
2023-04-02T02:29:28.741Z,16.52
2023-04-02T02:31:58.247Z,17.05
2023-04-02T02:34:35.251Z,17.42
2023-04-02T02:37:23.125Z,18.30
2023-04-02T02:39:57.396Z,16.23
2023-04-02T02:42:37.016Z,16.58
2023-04-02T02:45:12.835Z,16.02
2023-04-02T02:47:44.391Z,15.45
2023-04-02T02:50:22.940Z,17.38
2023-04-02T02:52:55.058Z,16.23
2023-04-02T02:55:34.501Z,16.08
2023-04-02T02:58:14.415Z,13.88
2023-04-02T03:00:50.230Z,13.27
2023-04-02T03:03:23.271Z,11.30
2023-04-02T03:06:02.128Z,12.77
2023-04-02T03:08:42.257Z,12.98
2023-04-02T03:11:40.433Z,13.15
2023-04-02T03:14:24.103Z,14.85
2023-04-02T03:17:00.873Z,16.05
2023-04-02T03:20:06.738Z,17.88
2023-04-02T03:22:41.480Z,19.10
2023-04-02T03:25:25.917Z,18.50
2023-04-02T03:28:02.352Z,18.13
2023-04-02T03:30:42.237Z,18.75
2023-04-02T03:33:21.500Z,18.73
2023-04-02T03:36:01.674Z,17.60
2023-04-02T03:38:35.005Z,19.63
2023-04-02T03:41:07.677Z,19.73
2023-04-02T03:43:47.781Z,19.98
2023-04-02T03:46:25.425Z,19.38
2023-04-02T03:49:00.302Z,21.15
2023-04-02T03:51:53.164Z,21.92
2023-04-02T03:54:22.216Z,21.40
2023-04-02T03:56:52.493Z,23.00
2023-04-02T03:59:41.489Z,23.30
2023-04-02T04:02:26.271Z,22.40
2023-04-02T04:04:57.417Z,22.55
2023-04-02T04:07:31.083Z,21.42
2023-04-02T04:10:00.965Z,21.60
2023-04-02T04:12:34.687Z,20.50
2023-04-02T04:15:03.743Z,20.38
2023-04-02T04:17:51.652Z,21.73
2023-04-02T04:20:28.077Z,22.83
2023-04-02T04:23:09.618Z,24.05
2023-04-02T04:25:38.098Z,24.52
2023-04-02T04:28:38.418Z,24.35
2023-04-02T04:31:20.951Z,26.08
2023-04-02T04:33:55.693Z,25.55
2023-04-02T04:36:30.767Z,24.25
2023-04-02T04:39:14.516Z,26.65
2023-04-02T04:41:47.533Z,24.25
2023-04-02T04:44:44.242Z,25.95
2023-04-02T04:47:25.324Z,28.17
2023-04-02T04:50:17.990Z,25.42
2023-04-02T04:52:46.544Z,22.15
2023-04-02T04:55:39.871Z,22.50
2023-04-02T04:58:17.069Z,22.67
2023-04-02T05:01:02.924Z,22.67
2023-04-02T05:03:32.898Z,22.55
2023-04-02T05:08:39.464Z,24.17
2023-04-02T05:11:15.898Z,23.85
2023-04-02T05:13:56.704Z,24.90
2023-04-02T05:16:33.406Z,24.00
2023-04-02T05:19:05.184Z,25.52
2023-04-02T05:21:47.723Z,25.35
2023-04-02T05:24:27.801Z,24.45
2023-04-02T05:27:03.267Z,24.23
2023-04-02T05:29:37.428Z,24.35
2023-04-02T05:32:26.707Z,25.55
2023-04-02T05:34:57.205Z,24.70
2023-04-02T05:37:28.598Z,25.05
2023-04-02T05:39:59.801Z,26.48
2023-04-02T05:42:30.953Z,26.15
2023-04-02T05:45:25.057Z,26.27
2023-04-02T05:48:01.817Z,25.60
2023-04-02T05:50:40.764Z,26.33
2023-04-02T05:53:27.395Z,25.10
2023-04-02T05:56:02.960Z,22.52
2023-04-02T05:58:48.057Z,22.50
2023-04-02T06:01:35.862Z,20.50
2023-04-02T06:04:14.266Z,22.00
2023-04-02T06:06:53.406Z,22.00
2023-04-02T06:09:27.800Z,24.10
2023-04-02T06:12:19.287Z,24.67
2023-04-02T06:14:48.455Z,24.45
2023-04-02T06:17:19.319Z,24.10
2023-04-02T06:19:48.056Z,25.83
2023-04-02T06:22:22.392Z,25.48
2023-04-02T06:25:03.241Z,25.02
2023-04-02T06:27:38.452Z,24.40
2023-04-02T06:30:17.905Z,25.80
2023-04-02T06:32:48.000Z,24.77
2023-04-02T06:35:17.461Z,26.25
2023-04-02T06:37:57.425Z,25.73
2023-04-02T06:40:33.633Z,25.23
2023-04-02T06:43:26.287Z,26.42
2023-04-02T06:46:58.912Z,27.95
2023-04-02T06:49:39.280Z,26.95
2023-04-02T06:54:42.863Z,27.83
2023-04-02T06:57:13.517Z,30.95
2023-04-02T06:59:44.508Z,30.52
2023-04-02T07:02:37.488Z,31.35
2023-04-02T07:05:09.358Z,30.25
2023-04-02T07:07:40.233Z,28.60
2023-04-02T07:10:12.741Z,28.45
2023-04-02T07:12:41.086Z,28.23
2023-04-02T07:15:14.874Z,29.52
2023-04-02T07:17:43.812Z,29.00
2023-04-02T07:20:32.917Z,26.92
2023-04-02T07:23:05.050Z,28.88
2023-04-02T07:25:32.441Z,28.23
2023-04-02T07:28:01.465Z,27.10
2023-04-02T07:30:29.434Z,24.98
2023-04-02T07:32:57.894Z,24.55
2023-04-02T07:35:26.848Z,22.52
2023-04-02T07:37:54.365Z,26.77
2023-04-02T07:40:24.273Z,25.50
2023-04-02T07:42:51.781Z,25.75
2023-04-02T07:45:19.714Z,28.00
2023-04-02T07:47:47.727Z,26.95
2023-04-02T07:50:15.140Z,28.08
2023-04-02T07:52:43.531Z,27.35
2023-04-02T07:55:14.169Z,26.70
2023-04-02T07:57:58.226Z,27.85
2023-04-02T08:00:28.399Z,25.52
2023-04-02T08:02:56.599Z,25.13
2023-04-02T08:05:24.579Z,23.35
2023-04-02T08:07:56.962Z,23.48
2023-04-02T08:10:25.007Z,23.20
2023-04-02T08:12:52.898Z,21.90
2023-04-02T08:15:20.652Z,24.17
2023-04-02T08:17:48.364Z,23.27
2023-04-02T08:20:22.179Z,22.38
2023-04-02T08:22:50.584Z,22.77
2023-04-02T08:25:18.249Z,23.58
2023-04-02T08:27:49.798Z,22.67
2023-04-02T08:30:17.996Z,23.95
2023-04-02T08:32:45.860Z,22.92
2023-04-02T08:35:16.453Z,23.15
2023-04-02T08:37:44.064Z,22.05
2023-04-02T08:40:23.670Z,20.70
2023-04-02T08:42:59.822Z,20.00
2023-04-02T08:45:52.395Z,19.42
2023-04-02T08:48:21.016Z,18.70
2023-04-02T08:50:49.893Z,19.17
2023-04-02T08:53:21.634Z,19.23
2023-04-02T08:56:17.943Z,19.33
2023-04-02T08:58:50.120Z,19.92
2023-04-02T09:01:41.604Z,20.85
2023-04-02T09:04:18.843Z,21.67
2023-04-02T09:06:48.982Z,21.95
2023-04-02T09:09:17.849Z,23.17
2023-04-02T09:11:48.406Z,23.58
2023-04-02T09:14:19.587Z,22.38
2023-04-02T09:16:51.766Z,23.55
2023-04-02T09:19:39.008Z,22.55
2023-04-02T09:22:06.496Z,23.10
2023-04-02T09:24:34.693Z,22.67
2023-04-02T09:27:02.319Z,24.30
2023-04-02T09:29:42.284Z,22.45
2023-04-02T09:32:37.798Z,22.80
2023-04-02T09:35:24.589Z,23.17
2023-04-02T09:38:24.927Z,21.92
2023-04-02T09:40:54.127Z,23.13
2023-04-02T09:43:24.866Z,22.48
2023-04-02T09:46:04.961Z,21.63
2023-04-02T09:48:36.144Z,20.85
2023-04-02T09:51:05.876Z,21.30
2023-04-02T09:53:40.507Z,21.23
2023-04-02T09:56:19.082Z,18.55
2023-04-02T09:59:03.404Z,17.83
2023-04-02T10:01:37.370Z,17.42
2023-04-02T10:04:07.633Z,16.10
2023-04-02T10:06:35.526Z,17.45
2023-04-02T10:09:30.436Z,18.70
2023-04-02T10:12:00.168Z,16.75
2023-04-02T10:14:35.656Z,16.55
2023-04-02T10:17:15.489Z,17.52
2023-04-02T10:19:48.840Z,18.00
2023-04-02T10:22:19.195Z,17.13
2023-04-02T10:24:48.209Z,16.67
2023-04-02T10:27:33.559Z,16.25
2023-04-02T10:30:13.404Z,16.50
2023-04-02T10:32:55.768Z,16.52
2023-04-02T10:35:58.161Z,15.40
2023-04-02T10:38:59.040Z,17.17
2023-04-02T10:41:32.871Z,16.75
2023-04-02T10:44:20.795Z,15.23
2023-04-02T10:47:33.046Z,16.40
2023-04-02T10:50:19.499Z,16.90
2023-04-02T10:52:59.640Z,15.95
2023-04-02T10:55:31.650Z,15.43
2023-04-02T10:58:04.957Z,12.45
2023-04-02T11:00:37.156Z,12.82
2023-04-02T11:03:15.950Z,12.18
2023-04-02T11:05:59.906Z,11.43
2023-04-02T11:08:39.707Z,12.10
2023-04-02T11:11:14.792Z,12.18
2023-04-02T11:14:10.692Z,12.10
2023-04-02T11:16:43.340Z,20.45
2023-04-02T11:19:16.837Z,9.65
2023-04-02T11:21:58.642Z,8.82
2023-04-02T11:24:30.383Z,7.28
2023-04-02T11:27:16.419Z,7.72
2023-04-02T11:30:02.578Z,7.45
2023-04-02T11:32:40.620Z,6.38
2023-04-02T11:35:24.223Z,7.20
2023-04-02T11:37:52.889Z,6.70
2023-04-02T11:40:54.899Z,7.45
2023-04-02T11:46:06.571Z,7.07
2023-04-02T11:48:36.729Z,6.90
2023-04-02T11:51:22.645Z,6.63
2023-04-02T11:53:53.974Z,6.97
2023-04-02T11:56:48.179Z,6.60
2023-04-02T11:59:32.169Z,6.40
2023-04-02T12:02:24.232Z,5.55
2023-04-02T12:05:15.569Z,5.38
2023-04-02T12:08:05.243Z,5.22
2023-04-02T12:10:49.624Z,5.40
2023-04-02T12:13:20.428Z,5.03
2023-04-02T12:15:49.713Z,3.63
2023-04-02T12:18:22.640Z,3.65
2023-04-02T12:20:52.954Z,2.90
2023-04-02T12:23:24.487Z,3.42
2023-04-02T12:28:25.202Z,3.50
2023-04-02T12:31:03.539Z,2.90
2023-04-02T12:33:38.938Z,2.95
2023-04-02T12:36:16.858Z,2.95
2023-04-02T12:38:49.796Z,2.53
2023-04-02T12:41:24.430Z,2.30
2023-04-02T12:44:00.382Z,2.03
2023-04-02T12:46:29.730Z,1.80
2023-04-02T12:49:16.685Z,2.25
2023-04-02T12:51:44.190Z,1.83
2023-04-02T12:54:17.576Z,2.10
2023-04-02T12:56:45.783Z,1.90
2023-04-02T12:59:36.142Z,1.88
2023-04-02T13:02:17.986Z,1.70
2023-04-02T13:04:53.810Z,1.63
2023-04-02T13:07:25.775Z,1.40
2023-04-02T13:09:55.917Z,1.98
2023-04-02T13:12:27.056Z,1.80
2023-04-02T13:14:57.328Z,1.92
2023-04-02T13:17:42.445Z,1.67
2023-04-02T13:20:29.252Z,1.90
2023-04-02T13:22:58.024Z,1.58
2023-04-02T13:25:31.447Z,2.60
2023-04-02T13:27:59.891Z,2.55
2023-04-02T13:30:28.830Z,2.00
2023-04-02T13:32:56.624Z,2.15
2023-04-02T13:35:24.195Z,2.17
2023-04-02T13:37:51.722Z,1.77
2023-04-02T13:40:19.400Z,1.80
2023-04-02T13:42:49.172Z,2.17
2023-04-02T13:45:27.379Z,2.30
2023-04-02T13:48:00.857Z,2.30
2023-04-02T13:50:30.703Z,1.30
2023-04-02T13:53:00.443Z,1.40
2023-04-02T13:55:32.159Z,1.33
2023-04-02T13:58:00.307Z,1.60
2023-04-02T14:00:27.878Z,1.73
2023-04-02T14:03:02.851Z,1.45
2023-04-02T14:06:03.027Z,1.38
2023-04-02T14:08:48.854Z,1.33
2023-04-02T14:11:41.829Z,1.67
2023-04-02T14:14:35.523Z,1.67
2023-04-02T14:17:14.040Z,1.65
2023-04-02T14:19:53.578Z,1.92
2023-04-02T14:22:50.397Z,1.77
2023-04-02T14:25:33.527Z,1.80
2023-04-02T14:28:23.607Z,1.48
2023-04-02T14:31:44.229Z,1.52
2023-04-02T14:34:33.402Z,1.80
2023-04-02T14:37:38.129Z,1.40
2023-04-02T14:41:03.402Z,1.33
2023-04-02T14:43:39.603Z,1.50
2023-04-02T14:46:10.393Z,1.63
2023-04-02T14:48:55.914Z,1.60
2023-04-02T14:51:49.787Z,1.85
2023-04-02T14:54:38.844Z,1.50
2023-04-02T14:57:35.379Z,1.80
2023-04-02T15:00:30.848Z,1.63
2023-04-02T15:03:38.349Z,2.60
2023-04-02T15:06:12.097Z,1.73
2023-04-02T15:08:52.389Z,1.98
2023-04-02T15:11:35.951Z,1.60
2023-04-02T15:14:12.722Z,2.00
2023-04-02T15:16:40.590Z,2.17
2023-04-02T15:19:17.950Z,1.50
2023-04-02T15:22:13.210Z,1.60
2023-04-02T15:24:54.732Z,1.50
2023-04-02T15:27:31.565Z,1.67
2023-04-02T15:30:23.535Z,1.52
2023-04-02T15:32:53.762Z,1.52
2023-04-02T15:35:32.807Z,1.75
2023-04-02T15:38:22.877Z,1.80
2023-04-02T15:41:27.435Z,1.70
2023-04-02T15:44:01.292Z,1.75
2023-04-02T15:46:50.470Z,1.50
2023-04-02T15:49:21.060Z,2.30
2023-04-02T15:54:37.846Z,3.85
2023-04-02T15:57:17.198Z,1.63
2023-04-02T15:59:54.313Z,1.35
2023-04-02T16:02:48.948Z,1.60
2023-04-02T16:05:45.201Z,1.92
2023-04-02T16:08:44.843Z,3.13
2023-04-02T16:11:14.434Z,1.95
2023-04-02T16:13:43.244Z,2.42
2023-04-02T16:16:22.640Z,2.60
2023-04-02T16:19:02.881Z,0.90
2023-04-02T16:21:38.556Z,1.05
2023-04-02T16:24:13.625Z,1.90
2023-04-02T16:27:07.751Z,2.10
2023-04-02T16:29:55.045Z,1.70
2023-04-02T16:33:01.565Z,1.90
2023-04-02T16:35:59.147Z,1.75
2023-04-02T16:38:45.523Z,2.10
2023-04-02T16:41:27.706Z,5.55
2023-04-02T16:44:07.631Z,3.47
2023-04-02T16:46:54.910Z,1.63
2023-04-02T16:49:22.670Z,2.60
2023-04-02T16:51:53.606Z,2.50
2023-04-02T16:54:31.038Z,2.15
2023-04-02T16:57:36.643Z,2.20
2023-04-02T17:00:30.897Z,1.75
2023-04-02T17:03:13.212Z,2.00
2023-04-02T17:06:04.658Z,2.60
2023-04-02T17:08:46.881Z,3.75
2023-04-02T17:11:31.519Z,1.95
2023-04-02T17:14:08.039Z,1.88
2023-04-02T17:16:42.966Z,3.42
2023-04-02T17:19:16.695Z,1.92
2023-04-02T17:21:48.887Z,1.58
2023-04-02T17:24:37.689Z,1.50
2023-04-02T17:27:31.249Z,5.80
2023-04-02T17:30:17.349Z,7.50
2023-04-02T17:32:45.305Z,4.25
2023-04-02T17:35:33.814Z,6.50
2023-04-02T17:38:07.702Z,4.63
2023-04-02T17:40:38.622Z,2.33
2023-04-02T17:43:33.931Z,2.78
2023-04-02T17:46:29.824Z,3.53
2023-04-02T17:49:10.641Z,2.90
2023-04-02T17:51:46.934Z,4.07
2023-04-02T17:54:30.793Z,2.70
2023-04-02T17:57:19.781Z,5.53
2023-04-02T18:00:34.485Z,2.60
2023-04-02T18:03:29.947Z,2.15
2023-04-02T18:06:00.224Z,2.30
2023-04-02T18:08:38.296Z,1.90
2023-04-02T18:11:14.676Z,9.02
2023-04-02T18:13:52.355Z,6.82
2023-04-02T18:16:49.791Z,9.35
2023-04-02T18:19:35.447Z,12.02
2023-04-02T18:22:32.254Z,4.93
2023-04-02T18:24:59.677Z,4.43
2023-04-02T18:27:46.159Z,5.65
2023-04-02T18:30:26.375Z,8.80
2023-04-02T18:33:05.114Z,5.50
2023-04-02T18:35:57.358Z,5.35
2023-04-02T18:38:46.418Z,8.85
2023-04-02T18:41:28.891Z,2.10
2023-04-02T18:44:29.006Z,1.80
2023-04-02T18:47:08.212Z,1.85
2023-04-02T18:49:40.101Z,2.08
2023-04-02T18:52:16.101Z,2.17
2023-04-02T18:54:45.797Z,2.70
2023-04-02T18:57:17.616Z,3.00
2023-04-02T19:00:06.627Z,2.55
2023-04-02T19:02:49.320Z,3.50
2023-04-02T19:05:37.277Z,3.45
2023-04-02T19:08:20.583Z,5.65
2023-04-02T19:10:53.438Z,8.05
2023-04-02T19:13:21.696Z,10.00
2023-04-02T19:16:02.826Z,8.38
2023-04-02T19:19:03.796Z,11.48
2023-04-02T19:21:56.248Z,8.77
2023-04-02T19:24:57.469Z,6.63
2023-04-02T19:27:33.998Z,5.27
2023-04-02T19:30:13.673Z,5.10
2023-04-02T19:33:02.884Z,5.05
2023-04-02T19:35:56.253Z,5.05
2023-04-02T19:38:31.073Z,5.90
2023-04-02T19:41:24.738Z,7.10
2023-04-02T19:43:53.038Z,5.85
2023-04-02T19:46:21.056Z,4.90
2023-04-02T19:49:00.265Z,4.15
2023-04-02T19:51:27.999Z,3.75
2023-04-02T19:53:55.976Z,3.33
2023-04-02T19:56:23.394Z,4.00
2023-04-02T19:58:50.892Z,4.07
2023-04-02T20:01:18.934Z,4.15
2023-04-02T20:03:46.360Z,3.33
2023-04-02T20:06:13.858Z,2.85
2023-04-02T20:08:42.025Z,3.05
2023-04-02T20:11:10.044Z,2.40
2023-04-02T20:13:37.519Z,2.50
2023-04-02T20:16:07.771Z,2.75
2023-04-02T20:18:37.172Z,3.03
2023-04-02T20:21:07.106Z,2.90
2023-04-02T20:23:35.356Z,3.15
2023-04-02T20:26:04.029Z,3.00
2023-04-02T20:28:31.981Z,3.20
2023-04-02T20:31:12.187Z,3.90
2023-04-02T20:33:40.859Z,3.55
2023-04-02T20:36:11.678Z,3.60
2023-04-02T20:38:39.112Z,3.60
2023-04-02T20:41:08.165Z,3.40
2023-04-02T20:43:37.578Z,2.95
2023-04-02T20:46:08.780Z,3.97
2023-04-02T20:48:39.029Z,5.25
2023-04-02T20:51:08.425Z,7.03
2023-04-02T20:53:38.356Z,5.35
2023-04-02T20:56:08.350Z,4.75
2023-04-02T20:58:37.511Z,4.13
2023-04-02T21:01:08.853Z,3.60
2023-04-02T21:03:36.553Z,4.10
2023-04-02T21:06:04.813Z,3.95
2023-04-02T21:08:32.218Z,4.10
2023-04-02T21:11:06.604Z,4.50
2023-04-02T21:13:38.474Z,4.70
2023-04-02T21:16:14.024Z,7.30
2023-04-02T21:18:42.472Z,10.02
2023-04-02T21:21:13.342Z,6.53
2023-04-02T21:23:42.775Z,4.25
2023-04-02T21:26:18.265Z,4.50
2023-04-02T21:28:46.235Z,4.47
2023-04-02T21:31:18.926Z,4.80
2023-04-02T21:33:52.601Z,5.10
2023-04-02T21:36:24.010Z,4.88
2023-04-02T21:39:03.408Z,5.85
2023-04-02T21:41:33.733Z,4.63
2023-04-02T21:44:05.542Z,4.72
2023-04-02T21:49:07.906Z,4.35
2023-04-02T21:51:37.052Z,4.57
2023-04-02T21:54:04.849Z,4.90
2023-04-02T21:56:37.977Z,4.07
2023-04-02T21:59:07.174Z,4.38
2023-04-02T22:01:41.649Z,4.32
2023-04-02T22:04:11.762Z,4.63
2023-04-02T22:06:41.434Z,4.55
2023-04-02T22:09:12.537Z,4.45
2023-04-02T22:11:43.461Z,4.18
2023-04-02T22:14:11.477Z,4.35
2023-04-02T22:16:39.953Z,4.57
2023-04-02T22:19:13.036Z,4.45
2023-04-02T22:21:40.956Z,5.00
2023-04-02T22:24:11.824Z,4.78
2023-04-02T22:26:40.755Z,5.10
2023-04-02T22:29:08.644Z,4.63
2023-04-02T22:31:36.827Z,5.03
2023-04-02T22:34:05.591Z,5.97
2023-04-02T22:36:33.747Z,5.97
2023-04-02T22:39:04.929Z,6.90
2023-04-02T22:41:32.739Z,6.35
2023-04-02T22:44:01.748Z,7.20
2023-04-02T22:46:30.612Z,7.30
2023-04-02T22:48:58.954Z,6.38
2023-04-02T22:51:27.971Z,5.80
2023-04-02T22:53:56.682Z,5.07
2023-04-02T22:56:28.577Z,5.35
2023-04-02T22:58:56.133Z,5.38
2023-04-02T23:01:27.658Z,5.10
2023-04-02T23:06:24.121Z,5.00
2023-04-02T23:08:52.389Z,4.80
2023-04-02T23:11:23.117Z,5.05
2023-04-02T23:13:52.768Z,6.05
2023-04-02T23:16:22.715Z,5.97
2023-04-02T23:18:51.418Z,5.22
2023-04-02T23:21:20.547Z,5.85
2023-04-02T23:23:48.783Z,5.38
2023-04-02T23:26:21.147Z,5.95
2023-04-02T23:28:49.922Z,6.00
2023-04-02T23:31:20.965Z,5.40
2023-04-02T23:33:49.707Z,5.05
2023-04-02T23:36:23.042Z,5.28
2023-04-02T23:38:55.850Z,5.63
2023-04-02T23:41:25.191Z,5.57
2023-04-02T23:43:53.241Z,5.38
2023-04-02T23:46:22.826Z,6.82
2023-04-02T23:48:51.614Z,6.70
2023-04-02T23:51:19.276Z,5.50
2023-04-02T23:53:47.154Z,5.85
2023-04-02T23:56:14.856Z,5.60
2023-04-02T23:58:42.701Z,5.60
